Test XHTML 1.0 Strict Page for WU-History Testing
Datos historicos para Xert
 
Diario Historicos para Abril 26, 2019 unidades:  Metrico    Imperiales   Ambos
« Anterior Dia
Proximo Dia »
Diario Semanal Mensual Anual Personalizado
  Actual: Max: Min: Promedio:
Temperatura: 7.7 °C 12.9 °C 7.3 °C 10.8 °C
Punto de rocio: 2.1 °C 3.1 °C 1.7 °C 2.3 °C
Humedad: 68% 70% 49% 56%
Viento: 6.4km/h 22.5km/h 0.0km/h 7.6km/h
Rafagas: 8.0km/h 25.7km/h - -
VientoNW - - WSW
Presion: 1018.2 hPa 1018.2 hPa 1015.5 hPa -
Lluvia: 0.0 mm      
Historical Graphs
 
 
Observa nuestra WebCam, mapa de radar de tormentas para Europa y mapa del radar de nuvosidad

Weather Camera

Radar Tormentas

Radar Sat24





Condiciones meteorologicas Actuales:

Datos tabulados para Abril 26, 2019
Hora Temperatura Punto Rocio Presion Viento Viento Rafagas Humedad Tasa lluvia (1 hora) solar Condiciones
00:00 10.4 °C 2.8 °C 1015.8 hPa Calm     59% 0.0 mm Wunderground v.1.15 W/m2
00:05 10.1 °C 2.7 °C 1015.5 hPa Calm     60% 0.0 mm Wunderground v.1.15 W/m2
00:09 10.0 °C 3.1 °C 1015.8 hPa North 1.6 km/h 1.6 km/h 62% 0.0 mm Wunderground v.1.15 W/m2
00:13 9.7 °C 2.8 °C 1015.8 hPa NW 6.4 km/h 6.4 km/h 62% 0.0 mm Wunderground v.1.15 W/m2
00:18 9.6 °C 2.8 °C 1015.8 hPa NW 3.2 km/h 6.4 km/h 63% 0.0 mm Wunderground v.1.15 W/m2
00:23 10.0 °C 2.6 °C 1015.8 hPa WNW 16.1 km/h 16.1 km/h 60% 0.0 mm Wunderground v.1.15 W/m2
00:27 11.3 °C 2.6 °C 1015.8 hPa WNW 8.0 km/h 16.1 km/h 55% 0.0 mm Wunderground v.1.15 W/m2
00:34 12.2 °C 2.7 °C 1015.8 hPa WNW 6.4 km/h 11.3 km/h 52% 0.0 mm Wunderground v.1.15 W/m2
00:38 12.5 °C 2.6 °C 1015.8 hPa WNW 9.7 km/h 14.5 km/h 51% 0.0 mm Wunderground v.1.15 W/m2
00:42 12.7 °C 2.5 °C 1016.1 hPa NW 8.0 km/h 12.9 km/h 50% 0.0 mm Wunderground v.1.15 W/m2
00:49 12.7 °C 2.3 °C 1015.8 hPa West 8.0 km/h 16.1 km/h 49% 0.0 mm Wunderground v.1.15 W/m2
00:54 12.8 °C 2.4 °C 1015.8 hPa NNW 12.9 km/h 12.9 km/h 49% 0.0 mm Wunderground v.1.15 W/m2
00:58 12.8 °C 2.3 °C 1015.8 hPa West 9.7 km/h 12.9 km/h 49% 0.0 mm Wunderground v.1.15 W/m2
01:02 12.8 °C 2.3 °C 1015.8 hPa WNW 11.3 km/h 11.3 km/h 49% 0.0 mm Wunderground v.1.15 W/m2
01:08 12.7 °C 2.6 °C 1016.1 hPa West 14.5 km/h 14.5 km/h 50% 0.0 mm Wunderground v.1.15 W/m2
01:12 12.7 °C 2.6 °C 1016.1 hPa WNW 12.9 km/h 12.9 km/h 50% 0.0 mm Wunderground v.1.15 W/m2
01:18 12.7 °C 2.5 °C 1016.1 hPa West 6.4 km/h 12.9 km/h 50% 0.0 mm Wunderground v.1.15 W/m2
01:25 12.6 °C 2.1 °C 1016.1 hPa WNW 12.9 km/h 12.9 km/h 49% 0.0 mm Wunderground v.1.15 W/m2
01:29 12.6 °C 2.2 °C 1016.1 hPa West 8.0 km/h 14.5 km/h 49% 0.0 mm Wunderground v.1.15 W/m2
01:33 12.7 °C 2.2 °C 1016.1 hPa West 17.7 km/h 17.7 km/h 49% 0.0 mm Wunderground v.1.15 W/m2
01:38 12.8 °C 2.4 °C 1016.5 hPa WNW 16.1 km/h 25.7 km/h 49% 0.0 mm Wunderground v.1.15 W/m2
01:44 12.8 °C 2.4 °C 1016.5 hPa WNW 17.7 km/h 19.3 km/h 49% 0.0 mm Wunderground v.1.15 W/m2
01:48 12.9 °C 2.4 °C 1016.5 hPa WNW 11.3 km/h 19.3 km/h 49% 0.0 mm Wunderground v.1.15 W/m2
01:54 12.8 °C 2.4 °C 1016.5 hPa WNW 22.5 km/h 22.5 km/h 49% 0.0 mm Wunderground v.1.15 W/m2
01:56 12.8 °C 2.3 °C 1016.5 hPa WNW 17.7 km/h 22.5 km/h 49% 0.0 mm Wunderground v.1.15 W/m2
02:03 12.8 °C 2.4 °C 1016.5 hPa NNW 22.5 km/h 22.5 km/h 49% 0.0 mm Wunderground v.1.15 W/m2
02:09 12.8 °C 2.3 °C 1016.5 hPa WNW 14.5 km/h 22.5 km/h 49% 0.0 mm Wunderground v.1.15 W/m2
02:12 12.8 °C 2.3 °C 1016.5 hPa WNW 17.7 km/h 24.1 km/h 49% 0.0 mm Wunderground v.1.15 W/m2
02:19 12.7 °C 2.2 °C 1016.8 hPa WNW 11.3 km/h 16.1 km/h 49% 0.0 mm Wunderground v.1.15 W/m2
02:22 12.6 °C 2.4 °C 1016.5 hPa NW 3.2 km/h 16.1 km/h 50% 0.0 mm Wunderground v.1.15 W/m2
02:25 12.4 °C 1.7 °C 1016.8 hPa NW 3.2 km/h 24.1 km/h 49% 0.0 mm oem by Ross Wheeler W/m2
02:35 12.4 °C 2.2 °C 1016.8 hPa NNE 1.6 km/h 4.8 km/h 50% 0.0 mm Wunderground v.1.15 W/m2
02:38 12.2 °C 2.1 °C 1016.8 hPa NNW 16.1 km/h 19.3 km/h 50% 0.0 mm Wunderground v.1.15 W/m2
02:44 12.1 °C 2.2 °C 1016.8 hPa NW 1.6 km/h 19.3 km/h 51% 0.0 mm Wunderground v.1.15 W/m2
02:47 12.1 °C 2.2 °C 1016.8 hPa WNW 11.3 km/h 16.1 km/h 51% 0.0 mm Wunderground v.1.15 W/m2
02:54 12.1 °C 2.5 °C 1017.2 hPa NNW 3.2 km/h 16.1 km/h 52% 0.0 mm Wunderground v.1.15 W/m2
03:00 12.0 °C 2.2 °C 1017.2 hPa West 1.6 km/h 6.4 km/h 51% 0.0 mm Wunderground v.1.15 W/m2
03:03 12.1 °C 2.5 °C 1017.2 hPa Calm   6.4 km/h 52% 0.0 mm Wunderground v.1.15 W/m2
03:09 11.8 °C 2.2 °C 1016.8 hPa WSW 4.8 km/h 8.0 km/h 52% 0.0 mm Wunderground v.1.15 W/m2
03:15 11.7 °C 2.2 °C 1016.8 hPa WNW 6.4 km/h 9.7 km/h 52% 0.0 mm Wunderground v.1.15 W/m2
03:19 11.8 °C 2.3 °C 1016.8 hPa WNW 8.0 km/h 12.9 km/h 52% 0.0 mm Wunderground v.1.15 W/m2
03:24 11.6 °C 2.3 °C 1016.8 hPa WNW 9.7 km/h 9.7 km/h 53% 0.0 mm Wunderground v.1.15 W/m2
03:27 11.7 °C 2.1 °C 1016.8 hPa SW 4.8 km/h 9.7 km/h 52% 0.0 mm Wunderground v.1.15 W/m2
03:35 11.9 °C 2.1 °C 1016.5 hPa WNW 8.0 km/h 9.7 km/h 51% 0.0 mm Wunderground v.1.15 W/m2
03:38 11.9 °C 1.8 °C 1016.5 hPa West 14.5 km/h 14.5 km/h 50% 0.0 mm Wunderground v.1.15 W/m2
03:44 11.9 °C 2.1 °C 1016.8 hPa WNW 6.4 km/h 8.0 km/h 51% 0.0 mm Wunderground v.1.15 W/m2
03:50 11.7 °C 2.2 °C 1016.8 hPa SSW 1.6 km/h 8.0 km/h 52% 0.0 mm Wunderground v.1.15 W/m2
03:53 11.3 °C 2.1 °C 1016.8 hPa ESE 6.4 km/h 8.0 km/h 53% 0.0 mm Wunderground v.1.15 W/m2
03:59 11.1 °C 2.1 °C 1016.8 hPa East 4.8 km/h 8.0 km/h 54% 0.0 mm Wunderground v.1.15 W/m2
04:02 10.9 °C 2.2 °C 1016.8 hPa East 3.2 km/h 6.4 km/h 55% 0.0 mm Wunderground v.1.15 W/m2
04:09 10.5 °C 2.3 °C 1016.8 hPa ESE 3.2 km/h 6.4 km/h 57% 0.0 mm Wunderground v.1.15 W/m2
04:15 10.1 °C 2.2 °C 1017.2 hPa NE 6.4 km/h 6.4 km/h 58% 0.0 mm Wunderground v.1.15 W/m2
04:18 9.8 °C 2.2 °C 1017.2 hPa NNE 1.6 km/h 6.4 km/h 59% 0.0 mm Wunderground v.1.15 W/m2
04:25 10.0 °C 2.1 °C 1017.2 hPa East 4.8 km/h 6.4 km/h 58% 0.0 mm Wunderground v.1.15 W/m2
04:27 10.2 °C 2.3 °C 1017.2 hPa Calm   6.4 km/h 58% 0.0 mm Wunderground v.1.15 W/m2
04:34 9.8 °C 1.9 °C 1017.2 hPa Calm   1.6 km/h 58% 0.0 mm Wunderground v.1.15 W/m2
04:40 9.2 °C 2.1 °C 1017.2 hPa NE 4.8 km/h 4.8 km/h 61% 0.0 mm Wunderground v.1.15 W/m2
04:43 8.9 °C 2.1 °C 1017.2 hPa NW 8.0 km/h 8.0 km/h 62% 0.0 mm Wunderground v.1.15 W/m2
04:50 8.5 °C 2.3 °C 1017.5 hPa North 3.2 km/h 8.0 km/h 65% 0.0 mm Wunderground v.1.15 W/m2
04:52 8.3 °C 2.1 °C 1017.5 hPa NW 4.8 km/h 8.0 km/h 65% 0.0 mm Wunderground v.1.15 W/m2
04:59 7.9 °C 2.0 °C 1017.5 hPa NW 6.4 km/h 9.7 km/h 66% 0.0 mm Wunderground v.1.15 W/m2
05:02 7.9 °C 1.9 °C 1017.5 hPa North 1.6 km/h 4.8 km/h 66% 0.0 mm Wunderground v.1.15 W/m2
05:09 8.2 °C 2.2 °C 1017.8 hPa NNW 4.8 km/h 4.8 km/h 66% 0.0 mm Wunderground v.1.15 W/m2
05:15 7.6 °C 2.1 °C 1017.8 hPa NW 6.4 km/h 6.4 km/h 68% 0.0 mm Wunderground v.1.15 W/m2
05:18 7.6 °C 2.1 °C 1017.8 hPa NNE 3.2 km/h 6.4 km/h 68% 0.0 mm Wunderground v.1.15 W/m2
05:24 7.6 °C 2.1 °C 1017.5 hPa NW 8.0 km/h 9.7 km/h 68% 0.0 mm Wunderground v.1.15 W/m2
05:27 7.6 °C 2.2 °C 1017.5 hPa NNW 4.8 km/h 9.7 km/h 69% 0.0 mm Wunderground v.1.15 W/m2
05:34 7.5 °C 2.2 °C 1017.8 hPa NNW 4.8 km/h 6.4 km/h 69% 0.0 mm Wunderground v.1.15 W/m2
05:40 7.3 °C 2.0 °C 1017.8 hPa NW 6.4 km/h 8.0 km/h 69% 0.0 mm Wunderground v.1.15 W/m2
05:43 7.3 °C 2.2 °C 1017.8 hPa NW 8.0 km/h 9.7 km/h 70% 0.0 mm Wunderground v.1.15 W/m2
05:50 7.4 °C 2.1 °C 1017.8 hPa NW 6.4 km/h 9.7 km/h 69% 0.0 mm Wunderground v.1.15 W/m2
05:53 7.4 °C 2.1 °C 1017.8 hPa NW 6.4 km/h 8.0 km/h 69% 0.0 mm Wunderground v.1.15 W/m2
05:59 7.6 °C 2.2 °C 1017.8 hPa NW 9.7 km/h 11.3 km/h 69% 0.0 mm Wunderground v.1.15 W/m2
06:02 7.7 °C 2.2 °C 1018.2 hPa NNW 6.4 km/h 8.0 km/h 68% 0.0 mm Wunderground v.1.15 W/m2
06:09 7.7 °C 2.1 °C 1018.2 hPa NW 6.4 km/h 8.0 km/h 68% 0.0 mm Wunderground v.1.15 W/m2
Datos historicos para Xert